sensor_id;sensor_type;location;lat;lon;timestamp;P1;durP1;ratioP1;P2;durP2;ratioP2
31087;SDS011;17745;55.914;37.554;2023-04-15T00:01:28;4.87;;;3.12;;
31087;SDS011;17745;55.914;37.554;2023-04-15T00:03:58;5.00;;;3.00;;
31087;SDS011;17745;55.914;37.554;2023-04-15T00:06:26;5.62;;;3.08;;
31087;SDS011;17745;55.914;37.554;2023-04-15T00:08:55;11.02;;;3.53;;
31087;SDS011;17745;55.914;37.554;2023-04-15T00:11:22;5.97;;;3.50;;
31087;SDS011;17745;55.914;37.554;2023-04-15T00:13:50;6.57;;;2.95;;
31087;SDS011;17745;55.914;37.554;2023-04-15T00:16:17;6.68;;;3.60;;
31087;SDS011;17745;55.914;37.554;2023-04-15T00:18:46;5.20;;;2.97;;
31087;SDS011;17745;55.914;37.554;2023-04-15T00:21:13;5.15;;;3.03;;
31087;SDS011;17745;55.914;37.554;2023-04-15T00:23:41;4.15;;;2.83;;
31087;SDS011;17745;55.914;37.554;2023-04-15T00:26:10;6.40;;;3.33;;
31087;SDS011;17745;55.914;37.554;2023-04-15T00:28:38;4.12;;;2.90;;
31087;SDS011;17745;55.914;37.554;2023-04-15T00:31:05;9.75;;;3.40;;
31087;SDS011;17745;55.914;37.554;2023-04-15T00:33:33;9.05;;;2.95;;
31087;SDS011;17745;55.914;37.554;2023-04-15T00:36:01;6.55;;;3.20;;
31087;SDS011;17745;55.914;37.554;2023-04-15T00:38:29;5.20;;;3.08;;
31087;SDS011;17745;55.914;37.554;2023-04-15T00:40:57;8.90;;;3.20;;
31087;SDS011;17745;55.914;37.554;2023-04-15T00:43:27;4.93;;;2.92;;
31087;SDS011;17745;55.914;37.554;2023-04-15T00:45:54;7.75;;;3.30;;
31087;SDS011;17745;55.914;37.554;2023-04-15T00:48:24;5.05;;;2.95;;
31087;SDS011;17745;55.914;37.554;2023-04-15T00:50:52;5.28;;;2.92;;
31087;SDS011;17745;55.914;37.554;2023-04-15T00:53:20;5.22;;;3.58;;
31087;SDS011;17745;55.914;37.554;2023-04-15T00:55:48;5.35;;;3.08;;
31087;SDS011;17745;55.914;37.554;2023-04-15T00:58:15;7.87;;;3.40;;
31087;SDS011;17745;55.914;37.554;2023-04-15T01:00:45;6.18;;;3.22;;
31087;SDS011;17745;55.914;37.554;2023-04-15T01:03:14;7.12;;;3.30;;
31087;SDS011;17745;55.914;37.554;2023-04-15T01:05:41;7.03;;;2.78;;
31087;SDS011;17745;55.914;37.554;2023-04-15T01:08:09;7.78;;;3.65;;
31087;SDS011;17745;55.914;37.554;2023-04-15T01:10:36;6.57;;;3.42;;
31087;SDS011;17745;55.914;37.554;2023-04-15T01:13:05;7.90;;;2.90;;
31087;SDS011;17745;55.914;37.554;2023-04-15T01:15:33;8.25;;;3.83;;
31087;SDS011;17745;55.914;37.554;2023-04-15T01:18:04;7.10;;;3.30;;
31087;SDS011;17745;55.914;37.554;2023-04-15T01:20:33;7.82;;;3.97;;
31087;SDS011;17745;55.914;37.554;2023-04-15T01:23:01;6.30;;;3.40;;
31087;SDS011;17745;55.914;37.554;2023-04-15T01:25:31;6.62;;;3.35;;
31087;SDS011;17745;55.914;37.554;2023-04-15T01:28:00;7.93;;;3.35;;
31087;SDS011;17745;55.914;37.554;2023-04-15T01:30:28;6.57;;;3.47;;
31087;SDS011;17745;55.914;37.554;2023-04-15T01:32:55;5.50;;;3.30;;
31087;SDS011;17745;55.914;37.554;2023-04-15T01:35:42;11.15;;;3.92;;
31087;SDS011;17745;55.914;37.554;2023-04-15T01:38:10;9.85;;;3.37;;
31087;SDS011;17745;55.914;37.554;2023-04-15T01:40:39;6.12;;;3.50;;
31087;SDS011;17745;55.914;37.554;2023-04-15T01:43:08;5.30;;;3.15;;
31087;SDS011;17745;55.914;37.554;2023-04-15T01:45:37;3.75;;;2.95;;
31087;SDS011;17745;55.914;37.554;2023-04-15T01:48:05;6.30;;;3.15;;
31087;SDS011;17745;55.914;37.554;2023-04-15T01:50:38;5.00;;;3.10;;
31087;SDS011;17745;55.914;37.554;2023-04-15T01:53:06;4.32;;;3.00;;
31087;SDS011;17745;55.914;37.554;2023-04-15T01:55:35;5.93;;;3.65;;
31087;SDS011;17745;55.914;37.554;2023-04-15T01:58:05;6.37;;;3.50;;
31087;SDS011;17745;55.914;37.554;2023-04-15T02:00:34;4.65;;;2.92;;
31087;SDS011;17745;55.914;37.554;2023-04-15T02:03:03;10.70;;;3.33;;
31087;SDS011;17745;55.914;37.554;2023-04-15T02:05:34;14.07;;;3.42;;
31087;SDS011;17745;55.914;37.554;2023-04-15T02:08:04;11.12;;;3.20;;
31087;SDS011;17745;55.914;37.554;2023-04-15T02:10:33;8.75;;;3.00;;
31087;SDS011;17745;55.914;37.554;2023-04-15T02:13:01;8.35;;;3.53;;
31087;SDS011;17745;55.914;37.554;2023-04-15T02:15:32;5.62;;;3.20;;
31087;SDS011;17745;55.914;37.554;2023-04-15T02:18:00;12.27;;;3.90;;
31087;SDS011;17745;55.914;37.554;2023-04-15T02:20:29;7.93;;;3.22;;
31087;SDS011;17745;55.914;37.554;2023-04-15T02:22:58;8.38;;;3.80;;
31087;SDS011;17745;55.914;37.554;2023-04-15T02:25:27;6.95;;;3.67;;
31087;SDS011;17745;55.914;37.554;2023-04-15T02:27:56;6.90;;;3.53;;
31087;SDS011;17745;55.914;37.554;2023-04-15T02:30:25;8.27;;;4.72;;
31087;SDS011;17745;55.914;37.554;2023-04-15T02:32:55;4.20;;;3.12;;
31087;SDS011;17745;55.914;37.554;2023-04-15T02:35:25;9.05;;;3.62;;
31087;SDS011;17745;55.914;37.554;2023-04-15T02:37:54;8.35;;;3.65;;
31087;SDS011;17745;55.914;37.554;2023-04-15T02:40:23;9.02;;;3.60;;
31087;SDS011;17745;55.914;37.554;2023-04-15T02:42:53;5.03;;;3.00;;
31087;SDS011;17745;55.914;37.554;2023-04-15T02:45:22;8.00;;;3.62;;
31087;SDS011;17745;55.914;37.554;2023-04-15T02:47:53;8.05;;;3.20;;
31087;SDS011;17745;55.914;37.554;2023-04-15T02:50:23;6.15;;;3.12;;
31087;SDS011;17745;55.914;37.554;2023-04-15T02:52:53;7.40;;;3.62;;
31087;SDS011;17745;55.914;37.554;2023-04-15T02:55:22;8.20;;;3.53;;
31087;SDS011;17745;55.914;37.554;2023-04-15T02:57:51;11.65;;;3.37;;
31087;SDS011;17745;55.914;37.554;2023-04-15T03:00:20;12.07;;;3.58;;
31087;SDS011;17745;55.914;37.554;2023-04-15T03:02:51;5.70;;;3.30;;
31087;SDS011;17745;55.914;37.554;2023-04-15T03:05:26;7.93;;;3.50;;
31087;SDS011;17745;55.914;37.554;2023-04-15T03:07:56;5.97;;;3.35;;
31087;SDS011;17745;55.914;37.554;2023-04-15T03:10:29;6.53;;;3.53;;
31087;SDS011;17745;55.914;37.554;2023-04-15T03:12:58;6.40;;;3.75;;
31087;SDS011;17745;55.914;37.554;2023-04-15T03:15:26;9.27;;;3.60;;
31087;SDS011;17745;55.914;37.554;2023-04-15T03:17:56;6.82;;;3.40;;
31087;SDS011;17745;55.914;37.554;2023-04-15T03:20:26;7.43;;;3.30;;
31087;SDS011;17745;55.914;37.554;2023-04-15T03:22:55;11.15;;;3.60;;
31087;SDS011;17745;55.914;37.554;2023-04-15T03:25:24;10.80;;;3.53;;
31087;SDS011;17745;55.914;37.554;2023-04-15T03:27:52;5.70;;;3.08;;
31087;SDS011;17745;55.914;37.554;2023-04-15T03:30:21;5.18;;;3.30;;
31087;SDS011;17745;55.914;37.554;2023-04-15T03:32:50;7.05;;;3.33;;
31087;SDS011;17745;55.914;37.554;2023-04-15T03:35:19;6.10;;;3.85;;
31087;SDS011;17745;55.914;37.554;2023-04-15T03:37:50;8.15;;;3.28;;
31087;SDS011;17745;55.914;37.554;2023-04-15T03:40:19;9.75;;;3.28;;
31087;SDS011;17745;55.914;37.554;2023-04-15T03:42:48;5.00;;;3.33;;
31087;SDS011;17745;55.914;37.554;2023-04-15T03:45:17;5.95;;;3.17;;
31087;SDS011;17745;55.914;37.554;2023-04-15T03:47:46;6.97;;;3.25;;
31087;SDS011;17745;55.914;37.554;2023-04-15T03:50:15;7.25;;;3.05;;
31087;SDS011;17745;55.914;37.554;2023-04-15T03:52:44;6.57;;;3.10;;
31087;SDS011;17745;55.914;37.554;2023-04-15T03:55:14;5.10;;;2.92;;
31087;SDS011;17745;55.914;37.554;2023-04-15T03:57:43;7.72;;;3.00;;
31087;SDS011;17745;55.914;37.554;2023-04-15T04:00:12;8.25;;;3.40;;
31087;SDS011;17745;55.914;37.554;2023-04-15T04:02:42;5.37;;;3.22;;
31087;SDS011;17745;55.914;37.554;2023-04-15T04:05:11;7.03;;;3.37;;
31087;SDS011;17745;55.914;37.554;2023-04-15T04:07:40;14.70;;;3.47;;
31087;SDS011;17745;55.914;37.554;2023-04-15T04:10:09;5.43;;;3.03;;
31087;SDS011;17745;55.914;37.554;2023-04-15T04:12:39;10.35;;;3.35;;
31087;SDS011;17745;55.914;37.554;2023-04-15T04:15:08;5.53;;;3.17;;
31087;SDS011;17745;55.914;37.554;2023-04-15T04:17:38;5.00;;;3.00;;
31087;SDS011;17745;55.914;37.554;2023-04-15T04:20:07;9.85;;;3.22;;
31087;SDS011;17745;55.914;37.554;2023-04-15T04:22:36;11.90;;;3.58;;
31087;SDS011;17745;55.914;37.554;2023-04-15T04:25:06;6.10;;;3.72;;
31087;SDS011;17745;55.914;37.554;2023-04-15T04:27:37;14.43;;;3.30;;
31087;SDS011;17745;55.914;37.554;2023-04-15T04:30:08;9.85;;;3.10;;
31087;SDS011;17745;55.914;37.554;2023-04-15T04:32:37;5.62;;;3.28;;
31087;SDS011;17745;55.914;37.554;2023-04-15T04:35:06;10.85;;;3.72;;
31087;SDS011;17745;55.914;37.554;2023-04-15T04:37:35;9.50;;;3.37;;
31087;SDS011;17745;55.914;37.554;2023-04-15T04:40:05;10.95;;;3.55;;
31087;SDS011;17745;55.914;37.554;2023-04-15T04:42:35;8.13;;;3.12;;
31087;SDS011;17745;55.914;37.554;2023-04-15T04:45:08;6.97;;;3.35;;
31087;SDS011;17745;55.914;37.554;2023-04-15T04:47:37;7.93;;;3.53;;
31087;SDS011;17745;55.914;37.554;2023-04-15T04:50:07;5.97;;;3.25;;
31087;SDS011;17745;55.914;37.554;2023-04-15T04:52:36;7.62;;;3.62;;
31087;SDS011;17745;55.914;37.554;2023-04-15T04:55:05;10.05;;;3.22;;
31087;SDS011;17745;55.914;37.554;2023-04-15T04:57:35;5.95;;;2.97;;
31087;SDS011;17745;55.914;37.554;2023-04-15T05:00:06;6.80;;;3.03;;
31087;SDS011;17745;55.914;37.554;2023-04-15T05:02:38;6.80;;;3.00;;
31087;SDS011;17745;55.914;37.554;2023-04-15T05:05:08;6.03;;;3.00;;
31087;SDS011;17745;55.914;37.554;2023-04-15T05:07:37;6.43;;;3.20;;
31087;SDS011;17745;55.914;37.554;2023-04-15T05:10:07;6.55;;;3.15;;
31087;SDS011;17745;55.914;37.554;2023-04-15T05:12:36;4.75;;;2.97;;
31087;SDS011;17745;55.914;37.554;2023-04-15T05:15:06;6.00;;;3.17;;
31087;SDS011;17745;55.914;37.554;2023-04-15T05:17:37;8.30;;;3.22;;
31087;SDS011;17745;55.914;37.554;2023-04-15T05:20:06;5.30;;;2.70;;
31087;SDS011;17745;55.914;37.554;2023-04-15T05:22:35;7.72;;;3.10;;
31087;SDS011;17745;55.914;37.554;2023-04-15T05:25:05;5.57;;;2.72;;
31087;SDS011;17745;55.914;37.554;2023-04-15T05:27:35;4.43;;;2.80;;
31087;SDS011;17745;55.914;37.554;2023-04-15T05:44:03;5.82;;;2.67;;
31087;SDS011;17745;55.914;37.554;2023-04-15T05:46:35;10.82;;;3.28;;
31087;SDS011;17745;55.914;37.554;2023-04-15T05:49:06;8.38;;;2.83;;
31087;SDS011;17745;55.914;37.554;2023-04-15T05:51:36;9.77;;;3.10;;
31087;SDS011;17745;55.914;37.554;2023-04-15T05:54:06;7.72;;;3.30;;
31087;SDS011;17745;55.914;37.554;2023-04-15T05:56:35;8.73;;;3.33;;
31087;SDS011;17745;55.914;37.554;2023-04-15T05:59:06;6.80;;;2.80;;
31087;SDS011;17745;55.914;37.554;2023-04-15T06:01:35;6.43;;;3.37;;
31087;SDS011;17745;55.914;37.554;2023-04-15T06:04:04;8.32;;;3.20;;
31087;SDS011;17745;55.914;37.554;2023-04-15T06:06:35;8.45;;;3.33;;
31087;SDS011;17745;55.914;37.554;2023-04-15T06:09:08;7.03;;;3.07;;
31087;SDS011;17745;55.914;37.554;2023-04-15T06:11:39;8.55;;;3.35;;
31087;SDS011;17745;55.914;37.554;2023-04-15T06:14:10;5.55;;;2.83;;
31087;SDS011;17745;55.914;37.554;2023-04-15T06:16:39;7.20;;;2.80;;
31087;SDS011;17745;55.914;37.554;2023-04-15T06:19:08;5.90;;;3.25;;
31087;SDS011;17745;55.914;37.554;2023-04-15T06:21:38;5.95;;;3.30;;
31087;SDS011;17745;55.914;37.554;2023-04-15T06:24:08;8.20;;;2.78;;
31087;SDS011;17745;55.914;37.554;2023-04-15T06:26:37;6.37;;;2.70;;
31087;SDS011;17745;55.914;37.554;2023-04-15T06:29:07;7.72;;;3.03;;
31087;SDS011;17745;55.914;37.554;2023-04-15T06:31:49;8.35;;;3.37;;
31087;SDS011;17745;55.914;37.554;2023-04-15T06:34:18;9.63;;;2.95;;
31087;SDS011;17745;55.914;37.554;2023-04-15T06:37:01;8.45;;;2.85;;
31087;SDS011;17745;55.914;37.554;2023-04-15T06:39:33;5.62;;;2.80;;
31087;SDS011;17745;55.914;37.554;2023-04-15T06:42:03;7.28;;;3.30;;
31087;SDS011;17745;55.914;37.554;2023-04-15T06:44:32;5.85;;;3.03;;
31087;SDS011;17745;55.914;37.554;2023-04-15T06:47:04;6.12;;;2.78;;
31087;SDS011;17745;55.914;37.554;2023-04-15T06:49:33;9.25;;;2.67;;
31087;SDS011;17745;55.914;37.554;2023-04-15T06:52:02;6.75;;;2.78;;
31087;SDS011;17745;55.914;37.554;2023-04-15T06:54:32;6.78;;;3.53;;
31087;SDS011;17745;55.914;37.554;2023-04-15T06:57:00;5.70;;;2.80;;
31087;SDS011;17745;55.914;37.554;2023-04-15T06:59:29;6.47;;;2.78;;
31087;SDS011;17745;55.914;37.554;2023-04-15T07:02:02;10.35;;;2.92;;
31087;SDS011;17745;55.914;37.554;2023-04-15T07:04:35;5.15;;;2.70;;
31087;SDS011;17745;55.914;37.554;2023-04-15T07:07:05;7.62;;;2.65;;
31087;SDS011;17745;55.914;37.554;2023-04-15T07:09:34;7.05;;;2.80;;
31087;SDS011;17745;55.914;37.554;2023-04-15T07:12:03;5.07;;;3.28;;
31087;SDS011;17745;55.914;37.554;2023-04-15T07:14:38;7.57;;;3.25;;
31087;SDS011;17745;55.914;37.554;2023-04-15T07:17:07;8.57;;;2.75;;
31087;SDS011;17745;55.914;37.554;2023-04-15T07:19:39;11.77;;;3.40;;
31087;SDS011;17745;55.914;37.554;2023-04-15T07:22:08;7.30;;;3.17;;
31087;SDS011;17745;55.914;37.554;2023-04-15T07:24:40;6.43;;;2.80;;
31087;SDS011;17745;55.914;37.554;2023-04-15T07:27:09;6.60;;;2.95;;
31087;SDS011;17745;55.914;37.554;2023-04-15T07:29:43;6.78;;;3.30;;
31087;SDS011;17745;55.914;37.554;2023-04-15T07:32:15;9.98;;;3.37;;
31087;SDS011;17745;55.914;37.554;2023-04-15T07:34:49;10.45;;;3.10;;
31087;SDS011;17745;55.914;37.554;2023-04-15T07:37:19;6.20;;;3.22;;
31087;SDS011;17745;55.914;37.554;2023-04-15T07:39:58;8.65;;;2.95;;
31087;SDS011;17745;55.914;37.554;2023-04-15T07:42:34;7.50;;;2.97;;
31087;SDS011;17745;55.914;37.554;2023-04-15T07:45:19;8.90;;;3.40;;
31087;SDS011;17745;55.914;37.554;2023-04-15T07:48:02;7.22;;;3.17;;
31087;SDS011;17745;55.914;37.554;2023-04-15T07:50:34;6.00;;;3.17;;
31087;SDS011;17745;55.914;37.554;2023-04-15T07:53:23;5.32;;;2.90;;
31087;SDS011;17745;55.914;37.554;2023-04-15T07:55:53;9.25;;;2.97;;
31087;SDS011;17745;55.914;37.554;2023-04-15T07:58:22;8.77;;;3.60;;
31087;SDS011;17745;55.914;37.554;2023-04-15T08:00:52;5.95;;;2.97;;
31087;SDS011;17745;55.914;37.554;2023-04-15T08:03:23;6.40;;;3.17;;
31087;SDS011;17745;55.914;37.554;2023-04-15T08:05:55;8.05;;;2.90;;
31087;SDS011;17745;55.914;37.554;2023-04-15T08:08:25;8.20;;;2.87;;
31087;SDS011;17745;55.914;37.554;2023-04-15T08:10:55;12.10;;;3.08;;
31087;SDS011;17745;55.914;37.554;2023-04-15T08:13:25;5.45;;;3.00;;
31087;SDS011;17745;55.914;37.554;2023-04-15T08:18:46;6.10;;;2.60;;
31087;SDS011;17745;55.914;37.554;2023-04-15T08:21:19;5.53;;;2.85;;
31087;SDS011;17745;55.914;37.554;2023-04-15T08:23:50;8.02;;;2.97;;
31087;SDS011;17745;55.914;37.554;2023-04-15T08:26:23;4.80;;;2.30;;
31087;SDS011;17745;55.914;37.554;2023-04-15T08:28:52;6.95;;;2.40;;
31087;SDS011;17745;55.914;37.554;2023-04-15T08:31:21;7.25;;;2.83;;
31087;SDS011;17745;55.914;37.554;2023-04-15T08:33:51;9.52;;;3.17;;
31087;SDS011;17745;55.914;37.554;2023-04-15T08:36:25;8.68;;;3.00;;
31087;SDS011;17745;55.914;37.554;2023-04-15T08:38:56;6.62;;;2.67;;
31087;SDS011;17745;55.914;37.554;2023-04-15T08:41:28;13.95;;;2.62;;
31087;SDS011;17745;55.914;37.554;2023-04-15T08:44:02;7.85;;;2.85;;
31087;SDS011;17745;55.914;37.554;2023-04-15T08:46:37;8.50;;;2.75;;
31087;SDS011;17745;55.914;37.554;2023-04-15T08:49:09;4.53;;;2.30;;
31087;SDS011;17745;55.914;37.554;2023-04-15T08:51:41;9.63;;;2.78;;
31087;SDS011;17745;55.914;37.554;2023-04-15T08:54:14;5.95;;;2.67;;
31087;SDS011;17745;55.914;37.554;2023-04-15T08:56:43;11.02;;;2.80;;
31087;SDS011;17745;55.914;37.554;2023-04-15T08:59:24;6.22;;;2.80;;
31087;SDS011;17745;55.914;37.554;2023-04-15T09:01:58;4.68;;;2.55;;
31087;SDS011;17745;55.914;37.554;2023-04-15T09:04:27;10.20;;;2.35;;
31087;SDS011;17745;55.914;37.554;2023-04-15T09:07:00;5.62;;;2.72;;
31087;SDS011;17745;55.914;37.554;2023-04-15T09:09:30;6.75;;;2.60;;
31087;SDS011;17745;55.914;37.554;2023-04-15T09:12:00;9.48;;;3.12;;
31087;SDS011;17745;55.914;37.554;2023-04-15T09:14:29;13.10;;;3.40;;
31087;SDS011;17745;55.914;37.554;2023-04-15T09:16:59;5.07;;;2.87;;
31087;SDS011;17745;55.914;37.554;2023-04-15T09:19:47;5.47;;;2.90;;
31087;SDS011;17745;55.914;37.554;2023-04-15T09:22:37;6.25;;;3.10;;
31087;SDS011;17745;55.914;37.554;2023-04-15T09:25:25;9.98;;;3.37;;
31087;SDS011;17745;55.914;37.554;2023-04-15T09:27:56;5.37;;;2.62;;
31087;SDS011;17745;55.914;37.554;2023-04-15T09:30:31;6.00;;;2.72;;
31087;SDS011;17745;55.914;37.554;2023-04-15T09:33:04;8.20;;;3.00;;
31087;SDS011;17745;55.914;37.554;2023-04-15T09:35:36;7.55;;;3.20;;
31087;SDS011;17745;55.914;37.554;2023-04-15T09:38:07;7.40;;;3.17;;
31087;SDS011;17745;55.914;37.554;2023-04-15T09:40:39;16.92;;;3.90;;
31087;SDS011;17745;55.914;37.554;2023-04-15T09:43:09;11.80;;;3.17;;
31087;SDS011;17745;55.914;37.554;2023-04-15T09:45:40;4.62;;;2.45;;
31087;SDS011;17745;55.914;37.554;2023-04-15T09:48:16;6.03;;;3.20;;
31087;SDS011;17745;55.914;37.554;2023-04-15T09:50:47;7.93;;;2.72;;
31087;SDS011;17745;55.914;37.554;2023-04-15T09:53:18;9.02;;;3.12;;
31087;SDS011;17745;55.914;37.554;2023-04-15T09:55:48;6.87;;;2.78;;
31087;SDS011;17745;55.914;37.554;2023-04-15T09:58:19;5.85;;;2.62;;
31087;SDS011;17745;55.914;37.554;2023-04-15T10:00:49;7.62;;;2.78;;
31087;SDS011;17745;55.914;37.554;2023-04-15T10:03:19;6.28;;;3.03;;
31087;SDS011;17745;55.914;37.554;2023-04-15T10:05:51;9.27;;;3.12;;
31087;SDS011;17745;55.914;37.554;2023-04-15T10:08:22;4.40;;;2.45;;
31087;SDS011;17745;55.914;37.554;2023-04-15T10:10:56;8.35;;;2.90;;
31087;SDS011;17745;55.914;37.554;2023-04-15T10:13:43;8.40;;;4.18;;
31087;SDS011;17745;55.914;37.554;2023-04-15T10:16:14;8.63;;;3.65;;
31087;SDS011;17745;55.914;37.554;2023-04-15T10:18:47;13.02;;;3.10;;
31087;SDS011;17745;55.914;37.554;2023-04-15T10:23:53;10.93;;;2.85;;
31087;SDS011;17745;55.914;37.554;2023-04-15T10:26:25;7.65;;;3.10;;
31087;SDS011;17745;55.914;37.554;2023-04-15T10:28:55;5.57;;;2.90;;
31087;SDS011;17745;55.914;37.554;2023-04-15T10:31:25;7.07;;;3.10;;
31087;SDS011;17745;55.914;37.554;2023-04-15T10:33:55;8.38;;;3.20;;
31087;SDS011;17745;55.914;37.554;2023-04-15T10:36:25;9.35;;;3.35;;
31087;SDS011;17745;55.914;37.554;2023-04-15T10:42:10;5.17;;;2.93;;
31087;SDS011;17745;55.914;37.554;2023-04-15T10:44:41;8.68;;;3.80;;
31087;SDS011;17745;55.914;37.554;2023-04-15T10:47:12;11.70;;;3.08;;
31087;SDS011;17745;55.914;37.554;2023-04-15T10:49:50;6.25;;;2.83;;
31087;SDS011;17745;55.914;37.554;2023-04-15T10:52:25;7.28;;;2.80;;
31087;SDS011;17745;55.914;37.554;2023-04-15T10:55:11;9.15;;;2.97;;
31087;SDS011;17745;55.914;37.554;2023-04-15T10:57:42;6.20;;;2.78;;
31087;SDS011;17745;55.914;37.554;2023-04-15T11:00:12;8.75;;;3.12;;
31087;SDS011;17745;55.914;37.554;2023-04-15T11:05:47;5.82;;;2.75;;
31087;SDS011;17745;55.914;37.554;2023-04-15T11:08:17;8.60;;;2.80;;
31087;SDS011;17745;55.914;37.554;2023-04-15T11:11:06;7.85;;;3.15;;
31087;SDS011;17745;55.914;37.554;2023-04-15T11:13:54;6.55;;;3.10;;
31087;SDS011;17745;55.914;37.554;2023-04-15T11:16:24;7.07;;;3.20;;
31087;SDS011;17745;55.914;37.554;2023-04-15T11:18:54;7.72;;;2.95;;
31087;SDS011;17745;55.914;37.554;2023-04-15T11:21:24;11.80;;;3.17;;
31087;SDS011;17745;55.914;37.554;2023-04-15T11:23:55;6.05;;;2.70;;
31087;SDS011;17745;55.914;37.554;2023-04-15T11:26:27;5.53;;;2.78;;
31087;SDS011;17745;55.914;37.554;2023-04-15T11:28:59;7.28;;;2.83;;
31087;SDS011;17745;55.914;37.554;2023-04-15T11:31:33;12.25;;;3.25;;
31087;SDS011;17745;55.914;37.554;2023-04-15T11:34:03;7.95;;;3.05;;
31087;SDS011;17745;55.914;37.554;2023-04-15T11:36:34;8.27;;;3.12;;
31087;SDS011;17745;55.914;37.554;2023-04-15T11:39:21;11.02;;;2.92;;
31087;SDS011;17745;55.914;37.554;2023-04-15T11:41:53;10.60;;;2.90;;
31087;SDS011;17745;55.914;37.554;2023-04-15T11:44:22;5.43;;;2.70;;
31087;SDS011;17745;55.914;37.554;2023-04-15T11:46:53;5.37;;;2.62;;
31087;SDS011;17745;55.914;37.554;2023-04-15T11:49:26;8.57;;;2.50;;
31087;SDS011;17745;55.914;37.554;2023-04-15T11:51:56;7.18;;;2.40;;
31087;SDS011;17745;55.914;37.554;2023-04-15T11:54:28;7.93;;;2.80;;
31087;SDS011;17745;55.914;37.554;2023-04-15T11:56:58;7.20;;;2.60;;
31087;SDS011;17745;55.914;37.554;2023-04-15T11:59:26;7.32;;;2.47;;
31087;SDS011;17745;55.914;37.554;2023-04-15T12:02:29;6.90;;;2.83;;
31087;SDS011;17745;55.914;37.554;2023-04-15T12:05:05;5.55;;;2.45;;
31087;SDS011;17745;55.914;37.554;2023-04-15T12:07:44;7.10;;;2.45;;
31087;SDS011;17745;55.914;37.554;2023-04-15T12:10:30;11.90;;;2.67;;
31087;SDS011;17745;55.914;37.554;2023-04-15T12:13:01;11.93;;;3.70;;
31087;SDS011;17745;55.914;37.554;2023-04-15T12:15:36;9.02;;;3.00;;
31087;SDS011;17745;55.914;37.554;2023-04-15T12:18:04;8.38;;;2.80;;
31087;SDS011;17745;55.914;37.554;2023-04-15T12:20:32;7.75;;;2.40;;
31087;SDS011;17745;55.914;37.554;2023-04-15T12:23:10;7.22;;;2.80;;
31087;SDS011;17745;55.914;37.554;2023-04-15T12:25:38;6.18;;;2.50;;
31087;SDS011;17745;55.914;37.554;2023-04-15T12:28:11;7.37;;;2.90;;
31087;SDS011;17745;55.914;37.554;2023-04-15T12:30:47;9.77;;;2.65;;
31087;SDS011;17745;55.914;37.554;2023-04-15T12:36:05;5.50;;;2.65;;
31087;SDS011;17745;55.914;37.554;2023-04-15T12:38:34;12.15;;;2.80;;
31087;SDS011;17745;55.914;37.554;2023-04-15T12:43:51;7.90;;;2.40;;
31087;SDS011;17745;55.914;37.554;2023-04-15T12:46:36;5.25;;;2.75;;
31087;SDS011;17745;55.914;37.554;2023-04-15T12:49:05;5.70;;;2.75;;
31087;SDS011;17745;55.914;37.554;2023-04-15T12:51:34;9.10;;;2.78;;
31087;SDS011;17745;55.914;37.554;2023-04-15T12:54:02;9.68;;;3.40;;
31087;SDS011;17745;55.914;37.554;2023-04-15T12:56:31;9.40;;;3.33;;
31087;SDS011;17745;55.914;37.554;2023-04-15T12:59:01;6.95;;;2.72;;
31087;SDS011;17745;55.914;37.554;2023-04-15T13:01:29;8.27;;;3.50;;
31087;SDS011;17745;55.914;37.554;2023-04-15T13:03:58;7.07;;;3.10;;
31087;SDS011;17745;55.914;37.554;2023-04-15T13:06:26;6.95;;;3.47;;
31087;SDS011;17745;55.914;37.554;2023-04-15T13:08:54;8.68;;;3.20;;
31087;SDS011;17745;55.914;37.554;2023-04-15T13:11:24;9.07;;;3.65;;
31087;SDS011;17745;55.914;37.554;2023-04-15T13:13:58;11.82;;;4.30;;
31087;SDS011;17745;55.914;37.554;2023-04-15T13:22:24;11.15;;;3.90;;
31087;SDS011;17745;55.914;37.554;2023-04-15T13:24:54;8.13;;;3.50;;
31087;SDS011;17745;55.914;37.554;2023-04-15T13:27:26;10.70;;;3.97;;
31087;SDS011;17745;55.914;37.554;2023-04-15T13:29:55;8.50;;;3.90;;
31087;SDS011;17745;55.914;37.554;2023-04-15T13:39:15;11.65;;;4.68;;
31087;SDS011;17745;55.914;37.554;2023-04-15T13:42:05;8.88;;;4.72;;
31087;SDS011;17745;55.914;37.554;2023-04-15T13:44:43;12.05;;;5.57;;
31087;SDS011;17745;55.914;37.554;2023-04-15T13:47:32;12.88;;;5.90;;
31087;SDS011;17745;55.914;37.554;2023-04-15T13:50:18;14.10;;;5.35;;
31087;SDS011;17745;55.914;37.554;2023-04-15T13:53:11;11.05;;;4.70;;
31087;SDS011;17745;55.914;37.554;2023-04-15T14:06:02;13.90;;;4.93;;
31087;SDS011;17745;55.914;37.554;2023-04-15T14:09:06;10.77;;;5.62;;
31087;SDS011;17745;55.914;37.554;2023-04-15T14:11:58;9.40;;;3.80;;
31087;SDS011;17745;55.914;37.554;2023-04-15T14:14:42;13.02;;;5.05;;
31087;SDS011;17745;55.914;37.554;2023-04-15T14:18:00;12.55;;;3.95;;
31087;SDS011;17745;55.914;37.554;2023-04-15T14:20:40;8.60;;;3.85;;
31087;SDS011;17745;55.914;37.554;2023-04-15T14:26:58;15.02;;;7.57;;
31087;SDS011;17745;55.914;37.554;2023-04-15T14:29:28;16.90;;;9.00;;
31087;SDS011;17745;55.914;37.554;2023-04-15T14:33:01;16.80;;;7.97;;
31087;SDS011;17745;55.914;37.554;2023-04-15T14:35:58;10.05;;;4.30;;
31087;SDS011;17745;55.914;37.554;2023-04-15T14:38:50;8.40;;;3.03;;
31087;SDS011;17745;55.914;37.554;2023-04-15T14:41:22;5.80;;;2.80;;
31087;SDS011;17745;55.914;37.554;2023-04-15T14:43:51;8.55;;;3.08;;
31087;SDS011;17745;55.914;37.554;2023-04-15T14:46:20;7.53;;;2.78;;
31087;SDS011;17745;55.914;37.554;2023-04-15T14:48:52;6.20;;;2.60;;
31087;SDS011;17745;55.914;37.554;2023-04-15T14:51:39;6.65;;;2.85;;
31087;SDS011;17745;55.914;37.554;2023-04-15T14:54:11;13.80;;;3.33;;
31087;SDS011;17745;55.914;37.554;2023-04-15T14:56:58;7.30;;;2.90;;
31087;SDS011;17745;55.914;37.554;2023-04-15T14:59:28;7.82;;;3.15;;
31087;SDS011;17745;55.914;37.554;2023-04-15T15:01:57;9.82;;;3.78;;
31087;SDS011;17745;55.914;37.554;2023-04-15T15:04:25;8.90;;;3.35;;
31087;SDS011;17745;55.914;37.554;2023-04-15T15:07:18;10.65;;;3.47;;
31087;SDS011;17745;55.914;37.554;2023-04-15T15:09:52;10.37;;;3.40;;
31087;SDS011;17745;55.914;37.554;2023-04-15T15:12:46;10.05;;;3.97;;
31087;SDS011;17745;55.914;37.554;2023-04-15T15:15:17;9.40;;;3.28;;
31087;SDS011;17745;55.914;37.554;2023-04-15T15:17:45;7.87;;;3.12;;
31087;SDS011;17745;55.914;37.554;2023-04-15T15:20:17;18.67;;;3.15;;
31087;SDS011;17745;55.914;37.554;2023-04-15T15:23:09;14.38;;;3.97;;
31087;SDS011;17745;55.914;37.554;2023-04-15T15:25:40;10.32;;;3.87;;
31087;SDS011;17745;55.914;37.554;2023-04-15T15:28:10;12.27;;;3.62;;
31087;SDS011;17745;55.914;37.554;2023-04-15T15:30:38;9.27;;;3.70;;
31087;SDS011;17745;55.914;37.554;2023-04-15T15:33:06;9.50;;;3.37;;
31087;SDS011;17745;55.914;37.554;2023-04-15T15:35:40;7.90;;;3.33;;
31087;SDS011;17745;55.914;37.554;2023-04-15T15:38:09;11.40;;;3.90;;
31087;SDS011;17745;55.914;37.554;2023-04-15T15:40:46;10.30;;;3.78;;
31087;SDS011;17745;55.914;37.554;2023-04-15T15:43:14;11.65;;;3.87;;
31087;SDS011;17745;55.914;37.554;2023-04-15T15:45:44;11.32;;;3.50;;
31087;SDS011;17745;55.914;37.554;2023-04-15T15:48:16;9.70;;;3.17;;
31087;SDS011;17745;55.914;37.554;2023-04-15T15:50:49;10.23;;;3.83;;
31087;SDS011;17745;55.914;37.554;2023-04-15T15:53:18;8.20;;;3.08;;
31087;SDS011;17745;55.914;37.554;2023-04-15T15:55:51;8.75;;;3.10;;
31087;SDS011;17745;55.914;37.554;2023-04-15T15:58:18;9.30;;;3.20;;